createdAt,value
2019-03-25T00:02:29.485Z,16.30
2019-03-25T00:04:58.334Z,15.93
2019-03-25T00:07:27.194Z,17.13
2019-03-25T00:09:56.161Z,16.60
2019-03-25T00:12:25.015Z,17.20
2019-03-25T00:14:53.850Z,15.60
2019-03-25T00:17:22.791Z,13.57
2019-03-25T00:19:51.637Z,14.43
2019-03-25T00:22:20.526Z,14.67
2019-03-25T00:24:49.448Z,14.87
2019-03-25T00:27:18.409Z,12.83
2019-03-25T00:29:47.470Z,14.17
2019-03-25T00:32:16.345Z,14.63
2019-03-25T00:34:45.290Z,16.10
2019-03-25T00:37:14.181Z,15.07
2019-03-25T00:39:43.005Z,16.60
2019-03-25T00:42:11.850Z,17.33
2019-03-25T00:44:40.698Z,18.03
2019-03-25T00:47:09.576Z,16.70
2019-03-25T00:49:38.419Z,17.60
2019-03-25T00:52:07.281Z,17.20
2019-03-25T00:54:36.149Z,16.80
2019-03-25T00:57:05.039Z,17.13
2019-03-25T00:59:33.929Z,17.40
2019-03-25T01:02:02.818Z,17.63
2019-03-25T01:04:31.630Z,18.93
2019-03-25T01:07:00.601Z,19.00
2019-03-25T01:09:29.487Z,20.90
2019-03-25T01:11:58.299Z,19.90
2019-03-25T01:14:27.267Z,18.63
2019-03-25T01:16:56.124Z,17.33
2019-03-25T01:19:25.048Z,16.97
2019-03-25T01:21:53.909Z,17.70
2019-03-25T01:24:22.766Z,16.20
2019-03-25T01:26:51.647Z,16.97
2019-03-25T01:29:20.495Z,14.97
2019-03-25T01:31:49.429Z,13.90
2019-03-25T01:34:18.275Z,14.63
2019-03-25T01:36:47.091Z,13.10
2019-03-25T01:39:15.989Z,13.57
2019-03-25T01:41:44.839Z,13.53
2019-03-25T01:44:13.676Z,11.37
2019-03-25T01:46:42.593Z,11.43
2019-03-25T01:49:11.436Z,11.30
2019-03-25T01:51:40.265Z,10.33
2019-03-25T01:54:09.178Z,10.80
2019-03-25T01:56:38.022Z,10.23
2019-03-25T01:59:06.863Z,11.33
2019-03-25T02:01:35.744Z,11.13
2019-03-25T02:04:04.601Z,11.00
2019-03-25T02:06:33.453Z,12.00
2019-03-25T02:09:02.349Z,11.77
2019-03-25T02:11:31.167Z,12.30
2019-03-25T02:14:00.002Z,12.13
2019-03-25T02:16:28.902Z,12.20
2019-03-25T02:18:57.743Z,12.03
2019-03-25T02:21:26.596Z,11.37
2019-03-25T02:23:55.509Z,11.67
2019-03-25T02:26:24.341Z,11.60
2019-03-25T02:28:53.174Z,12.60
2019-03-25T02:31:22.056Z,11.83
2019-03-25T02:33:50.900Z,11.57
2019-03-25T02:36:19.808Z,11.90
2019-03-25T02:38:48.639Z,13.53
2019-03-25T02:41:18.906Z,16.23
2019-03-25T02:43:48.020Z,19.13
2019-03-25T02:46:16.911Z,18.63
2019-03-25T02:48:45.750Z,14.70
2019-03-25T02:51:14.591Z,13.27
2019-03-25T02:53:43.463Z,12.40
2019-03-25T02:56:12.308Z,11.37
2019-03-25T02:58:41.146Z,12.63
2019-03-25T03:01:10.296Z,12.50
2019-03-25T03:03:39.143Z,12.10
2019-03-25T03:06:07.995Z,12.40
2019-03-25T03:08:36.837Z,12.50
2019-03-25T03:11:05.671Z,12.63
2019-03-25T03:13:34.535Z,12.60
2019-03-25T03:16:03.389Z,11.47
2019-03-25T03:18:32.234Z,11.77
2019-03-25T03:21:01.120Z,12.23
2019-03-25T03:23:29.957Z,12.00
2019-03-25T03:25:58.786Z,11.80
2019-03-25T03:28:27.652Z,11.23
2019-03-25T03:30:56.551Z,11.90
2019-03-25T03:33:25.492Z,11.43
2019-03-25T03:35:54.336Z,12.03
2019-03-25T03:38:23.170Z,12.10
2019-03-25T03:40:52.018Z,11.87
2019-03-25T03:43:20.865Z,11.40
2019-03-25T03:45:49.717Z,11.60
2019-03-25T03:48:18.567Z,11.90
2019-03-25T03:50:47.529Z,11.63
2019-03-25T03:53:16.481Z,12.43
2019-03-25T03:55:45.859Z,12.47
2019-03-25T03:58:14.879Z,12.23
2019-03-25T04:00:43.735Z,14.60
2019-03-25T04:03:12.593Z,14.40
2019-03-25T04:05:41.433Z,12.97
2019-03-25T04:08:10.290Z,13.33
2019-03-25T04:10:39.237Z,11.80
2019-03-25T04:13:08.068Z,12.80
2019-03-25T04:15:36.912Z,11.70
2019-03-25T04:18:05.743Z,12.40
2019-03-25T04:20:34.591Z,12.97
2019-03-25T04:23:03.420Z,12.43
2019-03-25T04:25:32.272Z,13.00
2019-03-25T04:28:01.139Z,15.13
2019-03-25T04:30:29.948Z,14.90
2019-03-25T04:32:58.790Z,15.87
2019-03-25T04:35:27.655Z,17.60
2019-03-25T04:37:56.791Z,16.17
2019-03-25T04:40:25.624Z,13.90
2019-03-25T04:42:54.491Z,12.97
2019-03-25T04:45:23.355Z,13.90
2019-03-25T04:47:52.243Z,13.10
2019-03-25T04:50:21.144Z,13.50
2019-03-25T04:52:49.997Z,41.80
2019-03-25T04:55:18.940Z,25.10
2019-03-25T04:57:47.786Z,27.97
2019-03-25T05:00:18.173Z,25.17
2019-03-25T05:02:47.034Z,17.30
2019-03-25T05:05:15.857Z,12.67
2019-03-25T05:07:44.709Z,11.47
2019-03-25T05:10:13.641Z,12.97
2019-03-25T05:12:42.473Z,12.33
2019-03-25T05:15:11.607Z,11.90
2019-03-25T05:17:40.462Z,12.90
2019-03-25T05:20:09.399Z,11.43
2019-03-25T05:22:38.259Z,12.37
2019-03-25T05:25:07.513Z,10.63
2019-03-25T05:27:36.392Z,10.93
2019-03-25T05:30:07.542Z,13.17
2019-03-25T05:32:36.444Z,12.40
2019-03-25T05:35:07.363Z,12.47
2019-03-25T05:37:36.239Z,12.67
2019-03-25T05:40:06.039Z,13.13
2019-03-25T05:42:35.526Z,11.88
2019-03-25T05:45:05.833Z,11.47
2019-03-25T05:47:35.396Z,10.63
2019-03-25T05:50:08.903Z,9.60
2019-03-25T05:52:37.953Z,10.13
2019-03-25T05:55:08.076Z,12.15
2019-03-25T05:57:37.522Z,9.93
2019-03-25T06:00:07.573Z,11.83
2019-03-25T06:02:37.008Z,12.40
2019-03-25T06:05:07.333Z,11.00
2019-03-25T06:07:36.813Z,10.23
2019-03-25T06:10:07.237Z,9.30
2019-03-25T06:12:36.681Z,10.00
2019-03-25T06:15:07.393Z,10.58
2019-03-25T06:17:37.151Z,10.70
2019-03-25T06:20:07.990Z,13.45
2019-03-25T06:22:37.589Z,14.73
2019-03-25T06:25:08.071Z,14.60
2019-03-25T06:27:37.471Z,14.30
2019-03-25T06:30:08.933Z,11.50
2019-03-25T06:32:38.379Z,13.28
2019-03-25T06:35:09.072Z,11.95
2019-03-25T06:37:38.776Z,9.58
2019-03-25T06:40:08.775Z,9.65
2019-03-25T06:42:38.279Z,11.73
2019-03-25T06:45:09.301Z,11.93
2019-03-25T06:47:38.806Z,10.78
2019-03-25T06:50:09.899Z,10.58
2019-03-25T06:52:39.322Z,9.48
2019-03-25T06:55:08.940Z,9.58
2019-03-25T06:57:38.902Z,10.30
2019-03-25T07:00:10.873Z,9.78
2019-03-25T07:02:40.319Z,10.72
2019-03-25T07:05:10.099Z,10.18
2019-03-25T07:07:39.578Z,10.20
2019-03-25T07:10:09.315Z,10.45
2019-03-25T07:12:38.771Z,11.33
2019-03-25T07:15:09.330Z,11.60
2019-03-25T07:17:38.773Z,11.18
2019-03-25T07:20:09.616Z,12.45
2019-03-25T07:22:39.075Z,12.58
2019-03-25T07:25:08.528Z,12.00
2019-03-25T07:27:37.961Z,11.53
2019-03-25T07:30:08.491Z,11.78
2019-03-25T07:32:37.969Z,11.15
2019-03-25T07:35:08.174Z,11.50
2019-03-25T07:37:37.667Z,10.70
2019-03-25T07:40:08.521Z,11.33
2019-03-25T07:42:38.008Z,11.55
2019-03-25T07:45:09.037Z,11.80
2019-03-25T07:47:38.579Z,10.88
2019-03-25T07:50:08.620Z,11.00
2019-03-25T07:52:38.148Z,11.28
2019-03-25T07:55:07.753Z,11.68
2019-03-25T07:57:47.623Z,12.13
2019-03-25T08:00:14.588Z,10.93
2019-03-25T08:02:44.237Z,12.50
2019-03-25T08:05:13.886Z,11.20
2019-03-25T08:07:43.345Z,11.88
2019-03-25T08:10:13.087Z,11.63
2019-03-25T08:12:42.583Z,12.35
2019-03-25T08:15:12.144Z,12.47
2019-03-25T08:17:41.614Z,11.63
2019-03-25T08:20:12.516Z,13.32
2019-03-25T08:22:41.992Z,12.40
2019-03-25T08:25:11.598Z,13.18
2019-03-25T08:27:41.044Z,11.38
2019-03-25T08:30:11.019Z,11.05
2019-03-25T08:32:40.689Z,10.80
2019-03-25T08:35:10.521Z,10.25
2019-03-25T08:37:39.935Z,9.83
2019-03-25T08:40:09.498Z,10.20
2019-03-25T08:42:39.056Z,10.28
2019-03-25T08:45:08.643Z,10.58
2019-03-25T08:47:38.127Z,10.40
2019-03-25T08:50:09.107Z,9.95
2019-03-25T08:52:38.540Z,10.88
2019-03-25T08:55:08.117Z,10.23
2019-03-25T08:57:37.688Z,10.28
2019-03-25T09:00:09.521Z,10.45
2019-03-25T09:02:38.938Z,10.90
2019-03-25T09:05:08.676Z,10.30
2019-03-25T09:07:38.137Z,10.13
2019-03-25T09:10:08.459Z,10.43
2019-03-25T09:12:38.082Z,10.85
2019-03-25T09:15:08.662Z,10.70
2019-03-25T09:17:38.098Z,11.15
2019-03-25T09:20:08.434Z,10.35
2019-03-25T09:22:37.943Z,11.05
2019-03-25T09:25:08.791Z,11.78
2019-03-25T09:27:38.338Z,11.12
2019-03-25T09:30:10.402Z,11.25
2019-03-25T09:32:40.011Z,11.70
2019-03-25T09:35:10.272Z,11.20
2019-03-25T09:37:39.850Z,11.55
2019-03-25T09:40:10.699Z,10.95
2019-03-25T09:42:40.181Z,10.98
2019-03-25T09:45:10.837Z,11.25
2019-03-25T09:47:40.341Z,11.65
2019-03-25T09:50:10.893Z,12.37
2019-03-25T09:52:40.351Z,11.15
2019-03-25T09:55:09.967Z,11.68
2019-03-25T09:57:39.448Z,11.83
2019-03-25T10:00:11.062Z,11.22
2019-03-25T10:02:40.547Z,11.50
2019-03-25T10:05:10.054Z,11.75
2019-03-25T10:07:39.507Z,12.50
2019-03-25T10:10:09.743Z,11.95
2019-03-25T10:12:39.259Z,12.20
2019-03-25T10:15:09.718Z,11.05
2019-03-25T10:17:39.235Z,11.50
2019-03-25T10:20:08.803Z,11.65
2019-03-25T10:22:38.243Z,12.73
2019-03-25T10:25:09.443Z,13.25
2019-03-25T10:27:39.688Z,13.35
2019-03-25T10:30:14.649Z,12.98
2019-03-25T10:32:44.216Z,12.78
2019-03-25T10:35:13.757Z,13.50
2019-03-25T10:37:43.248Z,14.20
2019-03-25T10:40:14.974Z,13.03
2019-03-25T10:42:44.445Z,13.28
2019-03-25T10:45:15.257Z,14.03
2019-03-25T10:47:44.809Z,13.83
2019-03-25T10:50:14.635Z,13.88
2019-03-25T10:52:44.079Z,13.83
2019-03-25T10:55:13.697Z,14.07
2019-03-25T10:57:43.223Z,13.48
2019-03-25T11:00:13.534Z,11.22
2019-03-25T11:02:43.014Z,11.28
2019-03-25T11:05:12.688Z,11.63
2019-03-25T11:10:12.721Z,12.28
2019-03-25T11:12:42.227Z,12.00
2019-03-25T11:15:12.143Z,9.93
2019-03-25T11:17:41.649Z,10.30
2019-03-25T11:20:11.581Z,11.85
2019-03-25T11:22:41.088Z,11.60
2019-03-25T11:25:12.215Z,13.10
2019-03-25T11:27:41.709Z,12.82
2019-03-25T11:30:12.650Z,12.85
2019-03-25T11:32:42.150Z,12.95
2019-03-25T11:35:13.169Z,14.10
2019-03-25T11:37:42.674Z,16.15
2019-03-25T11:40:12.738Z,15.43
2019-03-25T11:42:42.232Z,14.25
2019-03-25T11:45:13.349Z,12.80
2019-03-25T11:47:42.864Z,13.48
2019-03-25T11:50:12.678Z,12.60
2019-03-25T11:52:42.164Z,13.43
2019-03-25T11:55:11.645Z,14.45
2019-03-25T11:57:41.117Z,13.80
2019-03-25T12:00:11.000Z,15.88
2019-03-25T12:02:40.591Z,13.45
2019-03-25T12:05:10.132Z,13.00
2019-03-25T12:07:39.647Z,12.78
2019-03-25T12:10:09.222Z,13.35
2019-03-25T12:12:38.776Z,13.93
2019-03-25T12:15:09.795Z,13.43
2019-03-25T12:17:39.259Z,13.30
2019-03-25T12:20:09.615Z,12.95
2019-03-25T12:22:39.083Z,13.03
2019-03-25T12:25:08.531Z,13.98
2019-03-25T12:27:37.988Z,14.40
2019-03-25T12:30:10.400Z,14.30
2019-03-25T12:32:39.879Z,14.30
2019-03-25T12:35:09.590Z,13.25
2019-03-25T12:37:39.086Z,12.65
2019-03-25T12:40:08.690Z,11.28
2019-03-25T12:42:38.170Z,10.10
2019-03-25T12:45:08.700Z,9.75
2019-03-25T12:47:38.165Z,10.10
2019-03-25T12:50:09.221Z,9.90
2019-03-25T12:52:38.652Z,10.98
2019-03-25T12:55:08.421Z,11.08
2019-03-25T12:57:37.925Z,11.60
2019-03-25T13:00:08.505Z,11.10
2019-03-25T13:02:37.965Z,10.25
2019-03-25T13:05:08.785Z,9.85
2019-03-25T13:07:38.217Z,9.98
2019-03-25T13:10:07.507Z,8.80
2019-03-25T13:12:36.955Z,10.58
2019-03-25T13:15:08.049Z,10.70
2019-03-25T13:17:37.482Z,16.55
2019-03-25T13:20:07.419Z,9.90
2019-03-25T13:22:36.565Z,9.63
2019-03-25T13:25:07.013Z,9.73
2019-03-25T13:27:36.501Z,10.13
2019-03-25T13:30:09.454Z,9.30
2019-03-25T13:32:38.934Z,8.75
2019-03-25T13:35:08.650Z,8.08
2019-03-25T13:37:37.830Z,9.67
2019-03-25T13:40:08.213Z,9.40
2019-03-25T13:42:37.646Z,9.75
2019-03-25T13:45:07.692Z,10.00
2019-03-25T13:47:37.166Z,10.68
2019-03-25T13:50:08.132Z,10.60
2019-03-25T13:52:37.562Z,9.50
2019-03-25T13:55:07.133Z,10.13
2019-03-25T13:57:36.589Z,9.38
2019-03-25T14:00:10.221Z,11.28
2019-03-25T14:02:39.756Z,10.85
2019-03-25T14:05:09.459Z,10.75
2019-03-25T14:07:38.955Z,10.00
2019-03-25T14:10:09.909Z,11.83
2019-03-25T14:12:39.466Z,10.80
2019-03-25T14:15:09.096Z,11.60
2019-03-25T14:17:38.556Z,11.18
2019-03-25T14:20:09.307Z,10.88
2019-03-25T14:22:38.760Z,10.85
2019-03-25T14:25:08.267Z,10.18
2019-03-25T14:27:37.685Z,10.75
2019-03-25T14:30:14.477Z,10.05
2019-03-25T14:32:40.848Z,10.45
2019-03-25T14:35:10.538Z,10.30
2019-03-25T14:37:40.016Z,10.25
2019-03-25T14:40:09.485Z,10.38
2019-03-25T14:42:38.975Z,10.53
2019-03-25T14:45:09.431Z,10.75
2019-03-25T14:47:38.879Z,10.60
2019-03-25T14:50:09.342Z,14.40
2019-03-25T14:52:38.910Z,11.03
2019-03-25T14:55:08.317Z,10.75
2019-03-25T14:57:37.754Z,10.75
2019-03-25T15:00:08.311Z,11.28
2019-03-25T15:02:37.885Z,10.15
2019-03-25T15:05:08.589Z,10.93
2019-03-25T15:07:38.198Z,9.85
2019-03-25T15:10:08.146Z,9.43
2019-03-25T15:12:37.780Z,9.15
2019-03-25T15:15:08.146Z,9.58
2019-03-25T15:17:37.650Z,9.73
2019-03-25T15:20:10.086Z,8.20
2019-03-25T15:22:39.851Z,8.28
2019-03-25T15:25:10.990Z,7.67
2019-03-25T15:27:43.862Z,10.75
2019-03-25T15:30:14.484Z,10.08
2019-03-25T15:32:43.937Z,10.60
2019-03-25T15:35:13.727Z,14.20
2019-03-25T15:37:43.205Z,8.45
2019-03-25T15:40:13.574Z,9.03
2019-03-25T15:42:43.030Z,7.92
2019-03-25T15:45:12.916Z,15.70
2019-03-25T15:47:45.837Z,41.20
2019-03-25T15:50:13.817Z,16.97
2019-03-25T15:52:43.357Z,15.25
2019-03-25T15:55:13.025Z,18.40
2019-03-25T15:57:42.533Z,20.62
2019-03-25T16:00:15.863Z,18.42
2019-03-25T16:02:45.374Z,24.70
2019-03-25T16:05:15.949Z,13.60
2019-03-25T16:07:45.409Z,28.23
2019-03-25T16:10:16.787Z,14.03
2019-03-25T16:12:47.089Z,13.40
2019-03-25T16:15:21.958Z,10.32
2019-03-25T16:17:51.411Z,12.50
2019-03-25T16:20:20.862Z,12.33
2019-03-25T16:22:50.296Z,8.05
2019-03-25T16:25:22.686Z,9.23
2019-03-25T16:27:52.899Z,9.23
2019-03-25T16:30:25.232Z,17.50
2019-03-25T16:32:54.692Z,9.20
2019-03-25T16:35:24.163Z,8.30
2019-03-25T16:37:53.598Z,6.75
2019-03-25T16:40:23.038Z,7.12
2019-03-25T16:42:52.448Z,6.75
2019-03-25T16:45:21.898Z,7.03
2019-03-25T16:47:51.342Z,6.08
2019-03-25T16:50:20.834Z,6.20
2019-03-25T16:52:50.345Z,6.17
2019-03-25T16:55:19.783Z,6.45
2019-03-25T16:57:49.238Z,9.20
2019-03-25T17:00:27.233Z,9.10
2019-03-25T17:02:50.023Z,6.97
2019-03-25T17:05:19.508Z,6.33
2019-03-25T17:07:48.955Z,6.50
2019-03-25T17:10:18.414Z,5.65
2019-03-25T17:12:47.931Z,5.35
2019-03-25T17:15:17.362Z,6.22
2019-03-25T17:17:46.852Z,5.90
2019-03-25T17:20:16.317Z,5.80
2019-03-25T17:22:45.734Z,6.58
2019-03-25T17:25:15.301Z,6.75
2019-03-25T17:27:44.752Z,7.10
2019-03-25T17:30:16.707Z,9.15
2019-03-25T17:32:46.166Z,9.35
2019-03-25T17:35:15.736Z,11.40
2019-03-25T17:37:45.260Z,15.32
2019-03-25T17:40:14.856Z,10.00
2019-03-25T17:42:44.309Z,9.00
2019-03-25T17:45:14.044Z,8.58
2019-03-25T17:47:43.521Z,6.85
2019-03-25T17:50:13.354Z,7.10
2019-03-25T17:52:42.780Z,9.60
2019-03-25T17:55:12.522Z,13.30
2019-03-25T17:57:42.052Z,9.03
2019-03-25T18:00:13.011Z,5.08
2019-03-25T18:02:42.542Z,5.15
2019-03-25T18:05:12.115Z,6.00
2019-03-25T18:07:41.626Z,4.80
2019-03-25T18:10:11.272Z,5.55
2019-03-25T18:12:41.043Z,5.67
2019-03-25T18:15:13.644Z,10.10
2019-03-25T18:17:43.115Z,10.82
2019-03-25T18:20:18.607Z,8.43
2019-03-25T18:22:44.133Z,6.95
2019-03-25T18:25:13.714Z,6.85
2019-03-25T18:27:44.729Z,5.83
2019-03-25T18:30:15.763Z,5.67
2019-03-25T18:32:45.195Z,5.05
2019-03-25T18:35:17.569Z,5.85
2019-03-25T18:37:46.995Z,6.25
2019-03-25T18:40:16.475Z,5.50
2019-03-25T18:42:45.882Z,5.30
2019-03-25T18:45:15.394Z,6.37
2019-03-25T18:47:44.783Z,5.30
2019-03-25T18:50:17.213Z,6.00
2019-03-25T18:52:46.643Z,5.25
2019-03-25T18:55:16.438Z,5.00
2019-03-25T18:57:45.954Z,5.90
2019-03-25T19:00:32.991Z,5.78
2019-03-25T19:03:02.423Z,4.75
2019-03-25T19:05:32.076Z,4.67
2019-03-25T19:08:04.909Z,4.92
2019-03-25T19:10:34.466Z,4.55
2019-03-25T19:13:04.415Z,4.90
2019-03-25T19:15:33.917Z,5.35
2019-03-25T19:18:03.526Z,4.08
2019-03-25T19:20:33.077Z,4.72
2019-03-25T19:23:02.516Z,5.40
2019-03-25T19:25:31.943Z,4.85
2019-03-25T19:28:01.397Z,4.50
2019-03-25T19:30:30.866Z,4.97
2019-03-25T19:33:00.316Z,4.55
2019-03-25T19:35:30.275Z,7.72
2019-03-25T19:37:59.803Z,9.80
2019-03-25T19:40:29.269Z,13.15
2019-03-25T19:42:58.746Z,13.70
2019-03-25T19:45:28.194Z,15.65
2019-03-25T19:47:57.727Z,22.65
2019-03-25T19:50:27.171Z,9.60
2019-03-25T19:52:56.629Z,10.23
2019-03-25T19:55:26.175Z,7.55
2019-03-25T19:57:55.683Z,6.65
2019-03-25T20:00:39.133Z,6.85
2019-03-25T20:03:08.635Z,11.15
2019-03-25T20:05:38.097Z,9.58
2019-03-25T20:08:07.672Z,9.93
2019-03-25T20:10:38.129Z,9.15
2019-03-25T20:13:07.741Z,10.05
2019-03-25T20:15:45.951Z,7.17
2019-03-25T20:18:08.445Z,6.05
2019-03-25T20:20:37.897Z,5.62
2019-03-25T20:23:07.315Z,5.72
2019-03-25T20:25:36.847Z,5.72
2019-03-25T20:28:06.632Z,4.55
2019-03-25T20:30:36.126Z,4.78
2019-03-25T20:33:05.562Z,4.80
2019-03-25T20:35:35.058Z,7.35
2019-03-25T20:38:04.614Z,8.65
2019-03-25T20:40:34.163Z,10.38
2019-03-25T20:43:03.707Z,7.53
2019-03-25T20:45:33.122Z,6.37
2019-03-25T20:48:02.646Z,5.40
2019-03-25T20:50:32.163Z,5.95
2019-03-25T20:53:01.652Z,7.05
2019-03-25T20:55:31.166Z,7.97
2019-03-25T20:58:00.699Z,7.22
2019-03-25T21:00:51.072Z,6.45
2019-03-25T21:03:20.805Z,6.25
2019-03-25T21:05:50.236Z,6.15
2019-03-25T21:08:19.691Z,7.10
2019-03-25T21:10:49.278Z,6.80
2019-03-25T21:13:18.841Z,6.65
2019-03-25T21:15:48.358Z,6.60
2019-03-25T21:18:17.906Z,7.10
2019-03-25T21:20:47.405Z,6.62
2019-03-25T21:23:16.952Z,7.28
2019-03-25T21:25:46.410Z,9.28
2019-03-25T21:28:15.842Z,8.95
2019-03-25T21:30:48.254Z,14.07
2019-03-25T21:33:16.505Z,12.58
2019-03-25T21:35:45.993Z,14.18
2019-03-25T21:38:15.433Z,15.93
2019-03-25T21:40:45.163Z,14.85
2019-03-25T21:43:14.698Z,15.10
2019-03-25T21:45:44.199Z,14.03
2019-03-25T21:48:13.689Z,16.62
2019-03-25T21:50:43.238Z,20.97
2019-03-25T21:53:12.769Z,17.42
2019-03-25T21:55:42.421Z,14.80
2019-03-25T21:58:11.885Z,12.75
2019-03-25T22:00:41.336Z,12.53
2019-03-25T22:03:12.063Z,13.40
2019-03-25T22:05:42.009Z,11.38
2019-03-25T22:08:11.469Z,10.78
2019-03-25T22:10:42.964Z,10.32
2019-03-25T22:13:12.069Z,10.15
2019-03-25T22:15:41.525Z,8.83
2019-03-25T22:18:10.979Z,8.65
2019-03-25T22:20:40.441Z,9.90
2019-03-25T22:23:09.881Z,8.70
2019-03-25T22:25:39.411Z,9.95
2019-03-25T22:28:08.889Z,8.20
2019-03-25T22:30:38.345Z,8.53
2019-03-25T22:33:07.758Z,8.28
2019-03-25T22:35:37.220Z,9.40
2019-03-25T22:38:06.630Z,7.62
2019-03-25T22:40:36.069Z,7.85
2019-03-25T22:43:05.631Z,8.20
2019-03-25T22:45:35.051Z,7.95
2019-03-25T22:48:07.087Z,7.30
2019-03-25T22:50:35.766Z,7.10
2019-03-25T22:53:05.362Z,6.25
2019-03-25T22:55:34.764Z,6.50
2019-03-25T22:58:04.269Z,6.53
2019-03-25T23:03:38.935Z,6.55
2019-03-25T23:06:01.058Z,6.00
2019-03-25T23:08:30.560Z,6.85
2019-03-25T23:11:00.004Z,6.28
2019-03-25T23:13:29.447Z,6.70
2019-03-25T23:15:58.969Z,5.83
2019-03-25T23:18:28.384Z,5.58
2019-03-25T23:20:57.810Z,6.00
2019-03-25T23:23:27.292Z,6.35
2019-03-25T23:25:56.720Z,6.15
2019-03-25T23:28:26.143Z,5.40
2019-03-25T23:30:55.686Z,5.90
2019-03-25T23:33:25.378Z,6.35
2019-03-25T23:35:54.806Z,6.80
2019-03-25T23:38:24.288Z,8.60
2019-03-25T23:40:53.714Z,7.62
2019-03-25T23:43:23.234Z,6.90
2019-03-25T23:45:52.710Z,6.95
2019-03-25T23:48:22.277Z,6.67
2019-03-25T23:50:51.809Z,7.20
2019-03-25T23:53:21.228Z,6.28
2019-03-25T23:55:50.798Z,5.90
2019-03-25T23:58:20.245Z,7.00
